Time;durP1;ratioP1;P1;durP2;ratioP2;P2;SDS_P1;SDS_P2;PMS_P1;PMS_P2;Temp;Humidity;BMP_temperature;BMP_pressure;BME280_temperature;BME280_humidity;BME280_pressure;Samples;Min_cycle;Max_cycle;Signal;HPM_P1;HPM_P2
2021/09/14 00:00:38;;;;;;;7.65;5.63;;;15.90;99.90;;;;;;4141159;28;20058;-69
2021/09/14 00:02:39;;;;;;;8.82;5.38;;;15.80;99.90;;;;;;4140147;28;20037;-68
2021/09/14 00:04:40;;;;;;;9.25;5.15;;;15.80;99.90;;;;;;4140989;28;20036;-68
2021/09/14 00:06:41;;;;;;;9.07;5.82;;;15.80;99.90;;;;;;4139622;28;20038;-68
2021/09/14 00:08:42;;;;;;;7.95;5.38;;;15.80;99.90;;;;;;4141069;28;20030;-68
2021/09/14 00:10:43;;;;;;;8.30;5.43;;;15.80;99.90;;;;;;4140631;28;20076;-67
2021/09/14 00:12:45;;;;;;;6.60;5.35;;;15.80;99.90;;;;;;4140199;28;20041;-67
2021/09/14 00:14:46;;;;;;;6.38;5.13;;;15.80;99.90;;;;;;4140084;28;20040;-68
2021/09/14 00:16:47;;;;;;;6.45;5.25;;;15.80;99.90;;;;;;4141093;28;20037;-68
2021/09/14 00:18:48;;;;;;;8.93;5.55;;;15.80;99.90;;;;;;4140894;28;20100;-68
2021/09/14 00:20:49;;;;;;;12.80;5.50;;;15.70;99.90;;;;;;4140150;28;20778;-68
2021/09/14 00:22:50;;;;;;;6.68;5.13;;;15.70;99.90;;;;;;4140828;28;20038;-69
2021/09/14 00:24:52;;;;;;;8.15;5.57;;;15.60;99.90;;;;;;4140247;28;20095;-68
2021/09/14 00:26:53;;;;;;;8.48;5.35;;;15.60;99.90;;;;;;4140958;28;20080;-69
2021/09/14 00:28:54;;;;;;;8.38;5.53;;;15.60;99.90;;;;;;4139811;28;20061;-68
2021/09/14 00:30:55;;;;;;;7.70;5.53;;;15.60;99.90;;;;;;4140578;28;20092;-69
2021/09/14 00:32:56;;;;;;;6.70;4.90;;;15.60;99.90;;;;;;4140228;28;20021;-69
2021/09/14 00:34:57;;;;;;;8.57;5.97;;;15.60;99.90;;;;;;4141315;28;20046;-69
2021/09/14 00:36:58;;;;;;;7.22;5.38;;;15.60;99.90;;;;;;4139972;28;20042;-69
2021/09/14 00:38:59;;;;;;;6.80;4.88;;;15.60;99.90;;;;;;4140920;28;20375;-69
2021/09/14 00:41:01;;;;;;;7.07;5.07;;;15.60;99.90;;;;;;4140079;28;20033;-70
2021/09/14 00:43:02;;;;;;;11.57;5.00;;;15.60;99.90;;;;;;4140389;28;20103;-67
2021/09/14 00:45:04;;;;;;;7.13;4.88;;;15.60;99.90;;;;;;4140126;28;20088;-67
2021/09/14 00:47:05;;;;;;;8.02;5.65;;;15.60;99.90;;;;;;4140221;28;20033;-68
2021/09/14 00:49:06;;;;;;;8.13;5.20;;;15.50;99.90;;;;;;4140283;28;20029;-68
2021/09/14 00:51:08;;;;;;;6.38;5.00;;;15.50;99.90;;;;;;4139953;28;20723;-68
2021/09/14 00:53:09;;;;;;;7.80;5.28;;;15.50;99.90;;;;;;4139898;28;20082;-68
2021/09/14 00:55:11;;;;;;;7.07;5.15;;;15.50;99.90;;;;;;4139888;28;20037;-68
2021/09/14 00:57:12;;;;;;;6.35;5.45;;;15.50;99.90;;;;;;4140376;28;20042;-69
2021/09/14 00:59:13;;;;;;;9.52;4.85;;;15.50;99.90;;;;;;4139097;28;20069;-67
2021/09/14 01:01:15;;;;;;;7.07;5.70;;;15.50;99.90;;;;;;4140470;28;20100;-69
2021/09/14 01:03:16;;;;;;;6.65;5.18;;;15.50;99.90;;;;;;4139437;28;20100;-69
2021/09/14 01:05:17;;;;;;;9.52;5.15;;;15.40;99.90;;;;;;4140690;28;20120;-68
2021/09/14 01:07:19;;;;;;;8.35;5.47;;;15.40;99.90;;;;;;4138568;28;20041;-68
2021/09/14 01:09:21;;;;;;;8.02;5.32;;;15.40;99.90;;;;;;4140068;28;20034;-68
2021/09/14 01:11:22;;;;;;;6.38;5.53;;;15.40;99.90;;;;;;4139550;28;20033;-67
2021/09/14 01:13:23;;;;;;;9.77;5.78;;;15.40;99.90;;;;;;4140318;28;20527;-69
2021/09/14 01:15:25;;;;;;;10.77;5.40;;;15.30;99.90;;;;;;4139603;28;20372;-69
2021/09/14 01:17:26;;;;;;;11.23;5.28;;;15.30;99.90;;;;;;4139872;28;20042;-67
2021/09/14 01:19:27;;;;;;;6.93;5.10;;;15.30;99.90;;;;;;4138842;28;20034;-68
2021/09/14 01:21:29;;;;;;;8.10;5.47;;;15.30;99.90;;;;;;4139828;28;20046;-68
2021/09/14 01:23:30;;;;;;;8.75;5.28;;;15.30;99.90;;;;;;4140109;28;20099;-68
2021/09/14 01:25:31;;;;;;;7.60;5.32;;;15.20;99.90;;;;;;4139728;28;20080;-68
2021/09/14 01:27:33;;;;;;;7.45;5.53;;;15.30;99.90;;;;;;4139835;28;20042;-68
2021/09/14 01:31:53;;;;;;;6.85;4.75;;;15.30;99.90;;;;;;4140058;28;20030;-69
2021/09/14 01:33:54;;;;;;;6.40;5.35;;;15.20;99.90;;;;;;4139951;28;20772;-68
2021/09/14 01:35:55;;;;;;;6.88;5.35;;;15.20;99.90;;;;;;4140261;28;20088;-67
2021/09/14 01:37:58;;;;;;;8.38;4.82;;;15.20;99.90;;;;;;4138817;28;20181;-68
2021/09/14 01:39:59;;;;;;;7.35;5.80;;;15.20;99.90;;;;;;4139668;28;20037;-68
2021/09/14 01:42:00;;;;;;;7.85;5.53;;;15.20;99.90;;;;;;4138971;28;20444;-67
2021/09/14 01:44:01;;;;;;;7.22;5.40;;;15.20;99.90;;;;;;4139979;28;20076;-68
2021/09/14 01:46:03;;;;;;;8.98;5.20;;;15.20;99.90;;;;;;4139250;28;20108;-68
2021/09/14 01:48:05;;;;;;;7.32;5.28;;;15.20;99.90;;;;;;4139880;28;20434;-66
2021/09/14 01:50:09;;;;;;;6.10;5.10;;;15.30;99.90;;;;;;4138271;28;20038;-67
2021/09/14 01:52:10;;;;;;;10.15;4.75;;;15.30;99.90;;;;;;4140121;28;20033;-67
2021/09/14 01:54:11;;;;;;;8.68;4.70;;;15.30;99.90;;;;;;4139017;28;20500;-68
2021/09/14 01:56:12;;;;;;;5.63;4.93;;;15.30;99.90;;;;;;4139287;28;21125;-67
2021/09/14 01:58:13;;;;;;;8.07;5.63;;;15.30;99.90;;;;;;4139388;28;20065;-68
2021/09/14 02:00:20;;;;;;;9.02;5.93;;;15.30;99.90;;;;;;4139455;28;20022;-68
2021/09/14 02:02:35;;;;;;;6.57;5.10;;;15.30;99.90;;;;;;4138983;28;20458;-69
2021/09/14 02:38:38;;;;;;;12.35;6.03;;;15.30;99.90;;;;;;4141089;28;20038;-68
2021/09/14 02:58:41;;;;;;;10.27;7.35;;;14.70;99.90;;;;;;4142288;28;20483;-67
2021/09/14 03:00:42;;;;;;;16.48;7.95;;;14.70;99.90;;;;;;4141675;28;20057;-67
2021/09/14 03:02:44;;;;;;;16.60;7.57;;;14.60;99.90;;;;;;4141686;28;20517;-68
2021/09/14 03:04:45;;;;;;;10.75;6.90;;;14.60;99.90;;;;;;4141007;28;20026;-66
2021/09/14 03:06:47;;;;;;;13.18;7.80;;;14.70;99.90;;;;;;4142057;28;20042;-67
2021/09/14 03:08:48;;;;;;;12.82;7.78;;;14.70;99.90;;;;;;4141189;28;20096;-67
2021/09/14 03:10:49;;;;;;;13.43;8.48;;;14.60;99.90;;;;;;4142322;28;20026;-67
2021/09/14 03:12:51;;;;;;;12.75;7.15;;;14.60;99.90;;;;;;4140951;28;20982;-66
2021/09/14 03:14:52;;;;;;;13.40;6.80;;;14.50;99.90;;;;;;4142220;28;20037;-65
2021/09/14 03:16:53;;;;;;;13.80;7.53;;;14.40;99.90;;;;;;4140423;28;20144;-65
2021/09/14 03:18:56;;;;;;;15.45;7.50;;;14.30;99.90;;;;;;4141922;28;20049;-66
2021/09/14 03:20:57;;;;;;;19.70;8.10;;;14.20;99.90;;;;;;4140955;28;20042;-68
2021/09/14 03:22:58;;;;;;;11.70;8.13;;;14.20;99.90;;;;;;4141866;28;20018;-67
2021/09/14 03:24:59;;;;;;;15.23;7.97;;;14.10;99.90;;;;;;4141142;28;20544;-68
2021/09/14 03:27:00;;;;;;;14.87;8.70;;;14.10;99.90;;;;;;4141314;28;20088;-68
2021/09/14 03:29:01;;;;;;;11.47;7.77;;;14.10;99.90;;;;;;4141265;28;20030;-66
2021/09/14 03:31:04;;;;;;;11.60;8.03;;;14.10;99.90;;;;;;4140510;28;20100;-68
2021/09/14 03:33:05;;;;;;;13.03;7.70;;;14.10;99.90;;;;;;4140983;28;20034;-68
2021/09/14 03:35:06;;;;;;;15.10;8.67;;;14.10;99.90;;;;;;4141705;28;20440;-68
2021/09/14 03:37:08;;;;;;;13.27;7.50;;;14.10;99.90;;;;;;4141242;28;20045;-68
2021/09/14 03:39:09;;;;;;;11.77;7.37;;;14.10;99.90;;;;;;4140592;28;20690;-68
2021/09/14 03:41:10;;;;;;;18.47;7.57;;;14.00;99.90;;;;;;4141565;28;20072;-67
2021/09/14 03:43:17;;;;;;;19.50;9.43;;;14.10;99.90;;;;;;4140171;28;20095;-68
2021/09/14 03:45:18;;;;;;;15.90;8.40;;;14.10;99.90;;;;;;4141380;28;20088;-66
2021/09/14 03:47:19;;;;;;;18.53;8.63;;;14.10;99.90;;;;;;4139538;28;20033;-69
2021/09/14 03:49:20;;;;;;;20.27;8.77;;;14.10;99.90;;;;;;4141183;28;20425;-68
2021/09/14 03:51:21;;;;;;;13.50;7.97;;;14.00;99.90;;;;;;4140131;28;20049;-67
2021/09/14 03:53:22;;;;;;;17.27;9.07;;;14.00;99.90;;;;;;4140412;28;20092;-68
2021/09/14 03:55:24;;;;;;;13.57;8.17;;;14.00;99.90;;;;;;4140410;28;20084;-68
2021/09/14 03:57:25;;;;;;;12.27;8.10;;;14.10;99.90;;;;;;4140984;28;20045;-68
2021/09/14 03:59:26;;;;;;;13.10;7.57;;;14.20;99.90;;;;;;4140786;28;20034;-67
2021/09/14 04:01:27;;;;;;;15.60;7.77;;;14.30;99.90;;;;;;4139527;28;20087;-69
2021/09/14 04:09:53;;;;;;;13.13;7.13;;;14.30;99.90;;;;;;4140226;28;20034;-69
2021/09/14 04:11:54;;;;;;;10.67;6.73;;;14.30;99.90;;;;;;4139324;28;20029;-69
2021/09/14 04:13:55;;;;;;;14.47;7.87;;;14.40;99.90;;;;;;4139220;28;20038;-69
2021/09/14 04:15:56;;;;;;;13.73;7.53;;;14.40;99.90;;;;;;4139988;28;20064;-65
2021/09/14 04:17:58;;;;;;;13.60;8.40;;;14.40;99.90;;;;;;4139064;28;20046;-66
2021/09/14 04:19:59;;;;;;;21.80;8.80;;;14.40;99.90;;;;;;4139876;28;20038;-66
2021/09/14 04:22:00;;;;;;;15.53;7.87;;;14.40;99.90;;;;;;4129804;28;20026;-68
2021/09/14 04:24:01;;;;;;;11.37;7.10;;;14.40;99.90;;;;;;4124738;28;21088;-66
2021/09/14 04:26:03;;;;;;;16.43;8.43;;;14.40;99.90;;;;;;4123439;28;20541;-67
2021/09/14 04:28:04;;;;;;;15.75;7.78;;;14.40;99.90;;;;;;4124270;28;20081;-66
2021/09/14 04:30:06;;;;;;;13.97;7.93;;;14.40;99.90;;;;;;4123126;28;20104;-66
2021/09/14 04:32:07;;;;;;;17.97;7.73;;;14.50;99.90;;;;;;4124206;28;20081;-67
2021/09/14 04:34:08;;;;;;;12.02;7.50;;;14.50;99.90;;;;;;4123661;28;20065;-66
2021/09/14 04:36:09;;;;;;;14.80;7.68;;;14.50;99.90;;;;;;4124471;28;20093;-67
2021/09/14 04:38:11;;;;;;;13.23;7.63;;;14.50;99.90;;;;;;4138781;28;20160;-67
2021/09/14 04:40:12;;;;;;;11.33;7.67;;;14.50;99.90;;;;;;4139271;28;20084;-68
2021/09/14 04:42:13;;;;;;;14.07;8.23;;;14.50;99.90;;;;;;4139261;28;20548;-66
2021/09/14 04:44:14;;;;;;;15.05;8.35;;;14.50;99.90;;;;;;4139255;28;20080;-71
2021/09/14 04:46:16;;;;;;;15.35;7.90;;;14.50;99.90;;;;;;4139979;28;20088;-65
2021/09/14 04:48:17;;;;;;;16.30;7.70;;;14.60;99.90;;;;;;4139203;28;20042;-70
2021/09/14 04:50:18;;;;;;;18.38;8.35;;;14.70;99.90;;;;;;4139772;28;20406;-70
2021/09/14 04:52:19;;;;;;;19.63;9.55;;;14.80;99.90;;;;;;4139141;28;20030;-67
2021/09/14 04:54:20;;;;;;;11.68;7.95;;;14.90;99.90;;;;;;4140402;28;20561;-65
2021/09/14 04:56:21;;;;;;;16.23;8.55;;;14.90;99.90;;;;;;4139451;28;20022;-68
2021/09/14 04:58:23;;;;;;;17.25;9.40;;;15.00;99.90;;;;;;4139972;28;20046;-70
2021/09/14 05:00:24;;;;;;;15.68;8.25;;;15.40;99.90;;;;;;4125066;28;20807;-69
2021/09/14 05:02:26;;;;;;;19.77;8.65;;;15.80;99.90;;;;;;4139035;28;20029;-69
2021/09/14 05:04:27;;;;;;;16.50;7.68;;;16.20;99.90;;;;;;4144076;28;20034;-69
2021/09/14 05:06:28;;;;;;;14.98;8.00;;;16.70;99.90;;;;;;4150196;28;20107;-68
2021/09/14 05:08:29;;;;;;;18.33;8.00;;;17.10;99.90;;;;;;4143097;28;20029;-70
2021/09/14 05:10:30;;;;;;;17.60;7.07;;;17.30;99.90;;;;;;4148801;28;20104;-69
2021/09/14 05:12:31;;;;;;;14.98;7.57;;;17.50;99.90;;;;;;4142307;28;20033;-69
2021/09/14 05:14:32;;;;;;;21.45;7.85;;;17.90;99.90;;;;;;4146752;28;20426;-68
2021/09/14 05:16:33;;;;;;;17.35;6.90;;;18.30;99.90;;;;;;4139194;28;20458;-69
2021/09/14 05:18:35;;;;;;;12.70;7.18;;;18.50;99.90;;;;;;4126250;28;20037;-69
2021/09/14 05:20:37;;;;;;;12.63;7.40;;;18.80;99.90;;;;;;4139612;28;20030;-67
2021/09/14 05:22:38;;;;;;;15.65;7.28;;;19.00;99.90;;;;;;4138609;28;20046;-66
2021/09/14 05:24:40;;;;;;;15.40;7.65;;;18.90;99.90;;;;;;4139697;28;20085;-69
2021/09/14 05:26:41;;;;;;;11.77;7.20;;;19.20;99.90;;;;;;4138034;28;20602;-68
2021/09/14 05:28:43;;;;;;;17.73;6.55;;;19.40;99.90;;;;;;4139746;28;20445;-68
2021/09/14 05:30:45;;;;;;;12.43;6.45;;;19.50;99.90;;;;;;4138961;28;20092;-70
2021/09/14 05:32:46;;;;;;;16.00;7.13;;;19.90;99.90;;;;;;4139885;28;20084;-70
2021/09/14 05:34:50;;;;;;;13.73;6.53;;;20.10;99.90;;;;;;4138724;28;20347;-69
2021/09/14 05:36:53;;;;;;;15.00;7.03;;;20.20;99.90;;;;;;4139720;28;20459;-70
2021/09/14 05:38:54;;;;;;;13.05;6.63;;;20.50;99.90;;;;;;4138875;28;20111;-70
2021/09/14 05:40:57;;;;;;;14.13;6.75;;;20.90;99.90;;;;;;4138748;28;20069;-70
2021/09/14 05:42:58;;;;;;;17.02;6.90;;;21.10;99.90;;;;;;4139473;28;20433;-68
2021/09/14 05:44:59;;;;;;;10.93;6.80;;;21.30;99.90;;;;;;4138544;28;20498;-70
2021/09/14 05:47:04;;;;;;;17.17;6.80;;;21.50;99.90;;;;;;4139790;28;20037;-70
2021/09/14 05:49:05;;;;;;;19.83;7.57;;;21.70;99.90;;;;;;4138568;28;20080;-71
2021/09/14 05:51:06;;;;;;;21.08;8.00;;;21.70;99.90;;;;;;4139368;28;20441;-70
2021/09/14 05:53:07;;;;;;;15.20;7.78;;;21.60;99.60;;;;;;4138110;28;20450;-69
2021/09/14 05:55:09;;;;;;;16.77;7.05;;;21.70;99.50;;;;;;4139800;28;20026;-71
2021/09/14 05:57:10;;;;;;;25.98;7.63;;;21.80;99.10;;;;;;4138561;28;20030;-70
2021/09/14 05:59:11;;;;;;;24.63;8.80;;;22.10;98.70;;;;;;4139868;28;20045;-69
2021/09/14 06:01:13;;;;;;;15.82;6.60;;;22.30;98.20;;;;;;4138880;28;20471;-70
2021/09/14 06:03:14;;;;;;;12.18;6.18;;;22.60;97.60;;;;;;4139057;28;21060;-70
2021/09/14 06:05:15;;;;;;;12.63;5.95;;;22.70;97.00;;;;;;4138632;28;20053;-69
2021/09/14 06:07:16;;;;;;;41.45;8.15;;;22.70;96.70;;;;;;4139119;28;20560;-70
2021/09/14 06:09:18;;;;;;;33.72;7.22;;;22.70;96.80;;;;;;4138670;28;20145;-69
2021/09/14 06:11:19;;;;;;;49.75;9.60;;;22.60;96.80;;;;;;4138758;28;20104;-69
2021/09/14 06:13:20;;;;;;;45.72;9.32;;;22.50;96.90;;;;;;4139212;28;20089;-68
2021/09/14 06:15:21;;;;;;;46.60;8.50;;;22.60;96.90;;;;;;4139077;28;20042;-69
2021/09/14 06:17:23;;;;;;;46.78;8.25;;;23.00;96.70;;;;;;4139466;28;20046;-69
2021/09/14 06:19:24;;;;;;;35.05;7.72;;;23.20;96.20;;;;;;4138417;28;20072;-69
2021/09/14 06:21:25;;;;;;;23.83;7.25;;;23.40;95.60;;;;;;4139528;28;20080;-69
2021/09/14 06:23:26;;;;;;;25.70;7.75;;;23.30;95.40;;;;;;4138614;28;20030;-70
2021/09/14 06:25:27;;;;;;;16.15;5.13;;;23.50;95.30;;;;;;4139901;28;20026;-68
2021/09/14 06:27:29;;;;;;;16.95;6.15;;;23.40;94.70;;;;;;4138015;28;20033;-69
2021/09/14 06:29:30;;;;;;;25.75;6.13;;;23.50;94.70;;;;;;4139453;28;20084;-69
2021/09/14 06:31:31;;;;;;;24.35;7.38;;;23.70;94.50;;;;;;4138280;28;20084;-68
2021/09/14 06:33:32;;;;;;;18.05;6.35;;;24.00;94.10;;;;;;4139534;28;20080;-69
2021/09/14 06:35:35;;;;;;;16.92;5.50;;;23.90;93.70;;;;;;4138753;28;20050;-69
2021/09/14 06:37:36;;;;;;;12.07;5.38;;;23.60;93.60;;;;;;4138985;28;20131;-68
2021/09/14 06:39:38;;;;;;;24.08;9.20;;;23.90;93.50;;;;;;4138648;28;20046;-70
2021/09/14 06:41:39;;;;;;;9.20;5.65;;;24.50;92.90;;;;;;4138839;28;20091;-69
2021/09/14 06:43:40;;;;;;;9.45;4.40;;;24.50;92.50;;;;;;4138866;28;20492;-70
2021/09/14 06:45:42;;;;;;;10.27;4.70;;;24.60;92.30;;;;;;4138202;28;20093;-67
2021/09/14 06:47:44;;;;;;;11.30;4.47;;;24.50;91.90;;;;;;4139698;28;20053;-70
2021/09/14 06:49:45;;;;;;;9.88;4.47;;;24.60;91.90;;;;;;4138680;28;20394;-70
2021/09/14 06:51:46;;;;;;;8.32;4.70;;;24.90;91.50;;;;;;4139804;28;20033;-69
2021/09/14 06:53:48;;;;;;;10.52;5.07;;;25.00;91.10;;;;;;4138048;28;20132;-69
2021/09/14 06:55:50;;;;;;;10.13;5.57;;;24.90;90.90;;;;;;4139464;28;20026;-68
2021/09/14 06:57:51;;;;;;;8.70;5.55;;;25.00;90.80;;;;;;4137988;28;20050;-69
2021/09/14 06:59:52;;;;;;;12.55;5.43;;;24.60;90.70;;;;;;4139204;28;20026;-68
2021/09/14 07:01:53;;;;;;;15.32;5.90;;;24.40;90.80;;;;;;4136347;28;20100;-68
2021/09/14 07:03:55;;;;;;;17.15;7.10;;;24.30;91.10;;;;;;4139116;28;20108;-68
2021/09/14 07:05:56;;;;;;;17.33;6.25;;;24.40;91.30;;;;;;4140107;28;20108;-68
2021/09/14 07:07:57;;;;;;;16.65;6.00;;;24.40;91.20;;;;;;4141737;28;20440;-68
2021/09/14 07:09:58;;;;;;;17.60;5.97;;;24.70;91.00;;;;;;4141255;28;20836;-70
2021/09/14 07:11:59;;;;;;;13.10;5.88;;;25.00;90.70;;;;;;4141601;28;20030;-67
2021/09/14 07:14:00;;;;;;;12.25;5.45;;;24.70;90.60;;;;;;4141297;28;20037;-68
2021/09/14 07:16:01;;;;;;;16.55;5.82;;;24.30;90.80;;;;;;4141064;28;20030;-68
2021/09/14 07:18:03;;;;;;;14.25;4.22;;;24.10;91.10;;;;;;4141535;28;20042;-68
2021/09/14 07:20:07;;;;;;;8.60;4.47;;;24.10;91.10;;;;;;4140574;28;20042;-67
2021/09/14 07:22:08;;;;;;;9.48;5.18;;;24.20;91.00;;;;;;4141845;28;20512;-67
2021/09/14 07:24:09;;;;;;;22.00;5.03;;;24.00;91.20;;;;;;4140379;28;20064;-67
2021/09/14 07:26:10;;;;;;;20.63;5.47;;;23.90;91.30;;;;;;4141698;28;20045;-67
2021/09/14 07:28:12;;;;;;;13.07;5.22;;;23.90;91.20;;;;;;4140518;28;20046;-67
2021/09/14 07:30:13;;;;;;;16.60;6.20;;;24.00;91.40;;;;;;4141619;28;20459;-67
2021/09/14 07:32:14;;;;;;;20.33;5.60;;;24.30;91.30;;;;;;4140621;28;20030;-67
2021/09/14 07:34:16;;;;;;;20.33;6.15;;;24.60;91.10;;;;;;4141629;28;20608;-68
2021/09/14 07:36:17;;;;;;;20.77;6.25;;;24.90;90.80;;;;;;4141340;28;20104;-66
2021/09/14 07:38:18;;;;;;;23.42;5.38;;;25.00;90.50;;;;;;4141286;28;20457;-68
2021/09/14 07:40:19;;;;;;;13.80;5.32;;;25.00;90.40;;;;;;4140847;28;20478;-67
2021/09/14 07:42:20;;;;;;;14.70;5.03;;;25.20;90.40;;;;;;4141263;28;20038;-68
2021/09/14 07:44:21;;;;;;;13.35;4.72;;;25.40;90.20;;;;;;4140978;28;20042;-67
2021/09/14 07:46:23;;;;;;;9.32;5.22;;;25.40;90.10;;;;;;4140965;28;20018;-66
2021/09/14 07:48:24;;;;;;;16.60;5.28;;;25.40;90.00;;;;;;4141174;28;20037;-68
2021/09/14 07:50:25;;;;;;;11.90;4.47;;;25.40;89.40;;;;;;4140208;28;20022;-67
2021/09/14 07:52:26;;;;;;;16.27;4.93;;;25.40;89.20;;;;;;4141871;28;20848;-69
2021/09/14 07:54:27;;;;;;;21.70;4.90;;;25.20;88.90;;;;;;4140265;28;20095;-68
2021/09/14 07:56:29;;;;;;;21.92;5.30;;;25.10;88.80;;;;;;4141224;28;20030;-68
2021/09/14 07:58:30;;;;;;;18.95;7.22;;;24.70;89.40;;;;;;4139323;28;20042;-67
2021/09/14 08:00:32;;;;;;;15.48;6.85;;;23.90;90.60;;;;;;4141677;28;20046;-67
2021/09/14 08:02:33;;;;;;;16.88;6.60;;;23.50;91.10;;;;;;4140224;28;20133;-67
2021/09/14 08:04:34;;;;;;;14.95;7.75;;;23.40;91.40;;;;;;4141024;28;20096;-67
2021/09/14 08:06:35;;;;;;;21.38;7.63;;;23.30;91.60;;;;;;4140207;28;20432;-67
2021/09/14 08:08:36;;;;;;;20.70;7.10;;;23.10;92.00;;;;;;4140918;28;20116;-69
2021/09/14 08:10:38;;;;;;;13.43;7.70;;;23.00;92.30;;;;;;4139910;28;20504;-67
2021/09/14 08:12:39;;;;;;;16.02;6.90;;;23.00;92.30;;;;;;4140795;28;20026;-69
2021/09/14 08:14:40;;;;;;;16.25;7.10;;;23.00;92.50;;;;;;4140157;28;20037;-69
2021/09/14 08:16:41;;;;;;;21.10;7.32;;;22.90;92.50;;;;;;4140280;28;20029;-70
2021/09/14 08:18:42;;;;;;;15.18;7.38;;;22.90;92.40;;;;;;4140769;28;20088;-69
2021/09/14 08:20:43;;;;;;;13.10;7.32;;;23.20;92.30;;;;;;4140124;28;20026;-68
2021/09/14 08:22:44;;;;;;;18.05;7.05;;;23.50;92.00;;;;;;4140876;28;20554;-69
2021/09/14 08:24:46;;;;;;;32.63;8.07;;;23.50;91.80;;;;;;4140045;28;20502;-70
2021/09/14 08:26:47;;;;;;;17.48;7.25;;;23.70;91.70;;;;;;4140464;28;20026;-70
2021/09/14 08:28:48;;;;;;;20.70;7.70;;;23.70;91.60;;;;;;4139723;28;20106;-69
2021/09/14 08:30:50;;;;;;;13.82;6.68;;;23.70;91.50;;;;;;4141043;28;20081;-70
2021/09/14 08:32:51;;;;;;;10.25;6.32;;;23.70;91.50;;;;;;4138930;28;20029;-69
2021/09/14 08:34:52;;;;;;;14.63;6.10;;;23.90;91.30;;;;;;4140515;28;20038;-70
2021/09/14 08:36:53;;;;;;;14.32;6.32;;;23.80;91.10;;;;;;4139622;28;20438;-68
2021/09/14 08:38:55;;;;;;;14.93;6.72;;;23.70;91.20;;;;;;4140439;28;20041;-67
2021/09/14 08:40:56;;;;;;;17.65;7.03;;;23.90;91.20;;;;;;4140007;28;20041;-69
2021/09/14 08:42:58;;;;;;;13.00;6.65;;;23.90;91.00;;;;;;4140018;28;20481;-67
2021/09/14 08:44:59;;;;;;;12.57;6.13;;;24.10;90.90;;;;;;4139862;28;20021;-69
2021/09/14 08:47:03;;;;;;;12.20;6.55;;;24.30;90.70;;;;;;4139511;28;20501;-67
2021/09/14 08:49:04;;;;;;;11.23;5.72;;;24.30;90.50;;;;;;4139675;28;20026;-67
2021/09/14 08:51:06;;;;;;;17.95;6.15;;;24.30;90.50;;;;;;4139042;28;20030;-70
2021/09/14 08:53:08;;;;;;;11.55;5.97;;;24.20;90.30;;;;;;4139747;28;20033;-67
2021/09/14 08:55:10;;;;;;;12.70;5.15;;;24.10;90.10;;;;;;4137017;28;20403;-68
2021/09/14 08:57:11;;;;;;;5.70;4.10;;;24.30;90.00;;;;;;4140459;28;20096;-69
2021/09/14 08:59:23;;;;;;;8.80;3.85;;;24.30;88.70;;;;;;4138610;28;20042;-65
2021/09/14 09:01:24;;;;;;;7.18;3.97;;;24.20;88.40;;;;;;4140050;28;20039;-68
2021/09/14 09:03:29;;;;;;;5.10;3.85;;;24.30;88.30;;;;;;4138976;28;20038;-68
2021/09/14 09:05:32;;;;;;;6.95;3.53;;;24.70;87.70;;;;;;4139729;28;20049;-68
2021/09/14 09:07:35;;;;;;;5.25;3.17;;;24.90;86.30;;;;;;4138521;28;20067;-69
2021/09/14 09:09:36;;;;;;;5.63;4.05;;;25.00;86.10;;;;;;4140058;28;20072;-67
2021/09/14 09:11:37;;;;;;;10.10;4.22;;;25.00;86.00;;;;;;4139139;28;20815;-69
2021/09/14 09:13:44;;;;;;;5.63;3.47;;;24.90;86.30;;;;;;4140014;28;20037;-66
2021/09/14 09:15:45;;;;;;;11.70;3.95;;;25.10;86.30;;;;;;4138695;28;20034;-66
2021/09/14 09:17:47;;;;;;;11.63;4.10;;;25.30;86.30;;;;;;4140392;28;20038;-67
2021/09/14 09:19:59;;;;;;;11.80;3.72;;;25.50;86.10;;;;;;4136823;28;20489;-68
2021/09/14 09:22:01;;;;;;;10.57;3.67;;;25.80;85.40;;;;;;4139984;28;20104;-66
2021/09/14 09:24:04;;;;;;;14.38;4.40;;;25.90;85.50;;;;;;4139453;28;20030;-67
2021/09/14 09:26:08;;;;;;;10.15;4.32;;;26.20;85.20;;;;;;4139666;28;20026;-67
2021/09/14 09:28:16;;;;;;;11.73;3.95;;;26.30;84.90;;;;;;4138288;28;20050;-68
2021/09/14 09:30:21;;;;;;;12.88;4.20;;;26.30;84.40;;;;;;4138517;28;20176;-68
2021/09/14 09:32:22;;;;;;;10.32;4.05;;;26.40;84.20;;;;;;4139210;28;20088;-68
2021/09/14 09:34:27;;;;;;;10.95;3.90;;;26.50;84.10;;;;;;4138284;28;20108;-67
2021/09/14 09:36:30;;;;;;;12.88;5.13;;;26.30;83.50;;;;;;4140017;28;20076;-68
2021/09/14 09:38:48;;;;;;;9.45;4.47;;;26.20;83.30;;;;;;4138459;28;20100;-66
2021/09/14 09:40:50;;;;;;;7.65;4.30;;;25.90;83.40;;;;;;4139587;28;20077;-69
2021/09/14 09:42:51;;;;;;;7.10;3.95;;;25.70;83.90;;;;;;4138558;28;20030;-69
2021/09/14 09:44:57;;;;;;;8.55;3.97;;;25.60;84.20;;;;;;4139384;28;20031;-68
2021/09/14 09:47:01;;;;;;;4.30;3.65;;;25.70;84.00;;;;;;4138563;28;20025;-67
2021/09/14 09:49:08;;;;;;;8.75;4.57;;;25.70;84.00;;;;;;4139328;28;20368;-70
2021/09/14 09:51:09;;;;;;;14.52;5.20;;;25.80;83.70;;;;;;4136746;28;20038;-68
2021/09/14 09:53:11;;;;;;;12.43;4.90;;;25.50;84.40;;;;;;4139237;28;20037;-69
2021/09/14 09:55:13;;;;;;;11.95;4.68;;;25.50;84.90;;;;;;4138314;28;20026;-67
2021/09/14 09:57:14;;;;;;;10.93;4.68;;;25.50;85.10;;;;;;4139760;28;20112;-68
2021/09/14 09:59:16;;;;;;;11.80;4.45;;;25.50;85.10;;;;;;4136944;28;20510;-69
2021/09/14 10:01:20;;;;;;;11.82;4.90;;;25.50;85.10;;;;;;4139791;28;20474;-69
2021/09/14 10:03:26;;;;;;;11.60;4.72;;;25.70;85.40;;;;;;4138604;28;20038;-68
2021/09/14 10:05:35;;;;;;;9.75;4.68;;;25.90;85.40;;;;;;4139360;28;20467;-66
2021/09/14 10:07:40;;;;;;;9.77;4.10;;;26.20;85.10;;;;;;4136837;28;20100;-66
2021/09/14 10:09:49;;;;;;;9.10;6.70;;;26.30;84.60;;;;;;4139587;28;20096;-68
2021/09/14 10:11:54;;;;;;;10.70;5.40;;;26.50;83.50;;;;;;4138080;28;20088;-68
2021/09/14 10:14:05;;;;;;;15.20;5.80;;;26.20;84.30;;;;;;4139255;28;20104;-70
2021/09/14 10:16:08;;;;;;;12.95;4.55;;;25.90;84.20;;;;;;4138706;28;20030;-68
2021/09/14 10:18:11;;;;;;;8.00;4.43;;;25.70;84.90;;;;;;4139283;28;20100;-67
2021/09/14 10:20:13;;;;;;;8.77;5.13;;;25.60;84.90;;;;;;4138322;28;20080;-67
2021/09/14 10:22:23;;;;;;;7.38;4.75;;;25.70;85.00;;;;;;4138406;28;20084;-68
2021/09/14 10:24:24;;;;;;;7.85;4.68;;;25.80;84.70;;;;;;4139060;28;20433;-69
2021/09/14 10:26:36;;;;;;;8.73;4.55;;;25.70;85.20;;;;;;4138303;28;20042;-67
2021/09/14 10:28:49;;;;;;;9.52;4.45;;;25.60;83.90;;;;;;4138909;28;20045;-67
2021/09/14 10:30:50;;;;;;;10.60;4.72;;;25.60;85.00;;;;;;4138351;28;20084;-67
2021/09/14 10:32:51;;;;;;;6.78;4.15;;;25.40;84.80;;;;;;4139016;28;20042;-68
2021/09/14 10:34:56;;;;;;;6.25;4.15;;;25.30;85.30;;;;;;4138538;28;20033;-69
2021/09/14 10:37:00;;;;;;;6.45;4.85;;;25.30;85.30;;;;;;4139555;28;20080;-70
2021/09/14 10:39:06;;;;;;;12.32;4.82;;;25.20;84.80;;;;;;4138563;28;20064;-70
2021/09/14 10:41:15;;;;;;;11.73;4.70;;;25.20;85.00;;;;;;4142222;28;20041;-68
2021/09/14 10:43:34;;;;;;;7.57;4.40;;;25.10;84.80;;;;;;4139622;28;20450;-67
2021/09/14 10:45:42;;;;;;;6.35;3.88;;;25.30;84.60;;;;;;4142116;28;20096;-70
2021/09/14 10:47:48;;;;;;;8.13;3.92;;;25.50;84.40;;;;;;4139234;28;20041;-67
2021/09/14 10:50:00;;;;;;;7.80;3.70;;;25.60;84.50;;;;;;4142109;28;20037;-67
2021/09/14 10:52:01;;;;;;;8.07;4.13;;;25.50;82.30;;;;;;4141086;28;20087;-67
2021/09/14 10:54:02;;;;;;;7.80;4.45;;;25.40;83.30;;;;;;4142364;28;20372;-69
2021/09/14 10:56:04;;;;;;;10.15;3.97;;;25.30;83.40;;;;;;4141108;28;20431;-67
2021/09/14 10:58:05;;;;;;;8.27;4.07;;;25.40;83.20;;;;;;4142487;28;20038;-69
2021/09/14 11:00:28;;;;;;;8.10;3.60;;;25.50;83.30;;;;;;4140884;28;20061;-69
2021/09/14 11:02:29;;;;;;;5.47;3.85;;;25.40;83.00;;;;;;4142063;28;20088;-67
2021/09/14 11:04:30;;;;;;;9.68;4.35;;;25.40;83.00;;;;;;4139345;28;20523;-69
2021/09/14 11:06:32;;;;;;;6.50;3.92;;;25.50;83.20;;;;;;4142610;28;20050;-67
2021/09/14 11:08:33;;;;;;;8.50;4.18;;;25.50;82.90;;;;;;4141363;28;20422;-68
2021/09/14 11:10:35;;;;;;;8.73;3.50;;;25.50;83.00;;;;;;4142121;28;20105;-69
2021/09/14 11:12:37;;;;;;;5.95;3.85;;;25.60;82.80;;;;;;4140550;28;20026;-66
2021/09/14 11:14:43;;;;;;;7.22;4.00;;;25.50;82.80;;;;;;4141964;28;20104;-67
2021/09/14 11:16:45;;;;;;;8.00;4.05;;;25.50;83.00;;;;;;4140920;28;20092;-68
2021/09/14 11:18:47;;;;;;;7.60;3.72;;;25.50;83.30;;;;;;4141628;28;20095;-69
2021/09/14 11:20:48;;;;;;;6.65;3.83;;;25.70;83.20;;;;;;4140776;28;20025;-69
2021/09/14 11:22:50;;;;;;;8.68;3.90;;;25.90;83.10;;;;;;4141149;28;20045;-69
2021/09/14 11:24:51;;;;;;;11.95;3.88;;;26.00;82.90;;;;;;4141213;28;20038;-67
2021/09/14 11:26:52;;;;;;;13.57;4.13;;;26.20;82.70;;;;;;4140463;28;20018;-66
2021/09/14 11:28:59;;;;;;;4.30;3.92;;;26.30;82.00;;;;;;4140199;28;20034;-69
2021/09/14 11:31:03;;;;;;;4.22;3.50;;;26.40;81.50;;;;;;4140479;28;20479;-69